createdAt,value
2019-03-28T00:00:15.010Z,82.46
2019-03-28T00:01:15.001Z,83.77
2019-03-28T00:02:15.007Z,83.77
2019-03-28T00:03:14.978Z,84.08
2019-03-28T00:04:14.965Z,83.63
2019-03-28T00:05:14.961Z,84.25
2019-03-28T00:06:14.943Z,84.15
2019-03-28T00:07:14.955Z,83.63
2019-03-28T00:08:14.926Z,83.53
2019-03-28T00:09:14.913Z,83.63
2019-03-28T00:10:14.897Z,84.05
2019-03-28T00:11:14.887Z,83.84
2019-03-28T00:12:15.166Z,84.36
2019-03-28T00:13:14.867Z,84.15
2019-03-28T00:14:14.854Z,84.60
2019-03-28T00:15:14.842Z,84.25
2019-03-28T00:16:14.848Z,84.66
2019-03-28T00:17:14.861Z,84.56
2019-03-28T00:18:14.820Z,84.05
2019-03-28T00:19:14.806Z,84.36
2019-03-28T00:20:16.449Z,83.94
2019-03-28T00:21:14.778Z,83.49
2019-03-28T00:22:14.765Z,83.80
2019-03-28T00:23:14.776Z,83.84
2019-03-28T00:24:14.742Z,83.80
2019-03-28T00:25:14.734Z,82.56
2019-03-28T00:26:14.723Z,82.97
2019-03-28T00:27:14.713Z,83.42
2019-03-28T00:28:14.722Z,83.49
2019-03-28T00:29:14.692Z,83.39
2019-03-28T00:30:14.680Z,83.70
2019-03-28T00:31:14.665Z,82.39
2019-03-28T00:32:14.656Z,83.53
2019-03-28T00:33:14.674Z,84.39
2019-03-28T00:34:14.633Z,84.25
2019-03-28T00:35:14.625Z,84.60
2019-03-28T00:36:14.611Z,84.50
2019-03-28T00:37:14.601Z,84.91
2019-03-28T00:38:14.608Z,84.87
2019-03-28T00:39:15.209Z,84.77
2019-03-28T00:40:14.567Z,84.45
2019-03-28T00:41:14.554Z,84.45
2019-03-28T00:42:14.551Z,84.05
2019-03-28T00:43:14.556Z,84.25
2019-03-28T00:44:14.526Z,83.84
2019-03-28T00:45:14.512Z,84.29
2019-03-28T00:46:14.503Z,84.66
2019-03-28T00:47:14.494Z,84.39
2019-03-28T00:48:14.499Z,84.39
2019-03-28T00:49:14.472Z,84.84
2019-03-28T00:50:14.459Z,86.19
2019-03-28T00:51:14.448Z,85.78
2019-03-28T00:52:14.432Z,85.68
2019-03-28T00:53:14.445Z,85.88
2019-03-28T00:54:14.414Z,85.78
2019-03-28T00:55:14.402Z,84.84
2019-03-28T00:56:14.389Z,85.94
2019-03-28T00:57:14.383Z,85.99
2019-03-28T00:58:14.388Z,85.47
2019-03-28T00:59:14.357Z,85.53
2019-03-28T01:00:14.479Z,85.53
2019-03-28T01:01:14.334Z,85.05
2019-03-28T01:02:14.322Z,85.36
2019-03-28T01:03:14.335Z,85.57
2019-03-28T01:04:14.305Z,85.16
2019-03-28T01:05:14.292Z,86.02
2019-03-28T01:06:14.283Z,86.23
2019-03-28T01:07:14.271Z,86.37
2019-03-28T01:08:14.283Z,86.44
2019-03-28T01:09:14.251Z,85.55
2019-03-28T01:10:14.236Z,86.07
2019-03-28T01:11:14.231Z,86.31
2019-03-28T01:12:14.218Z,86.62
2019-03-28T01:13:14.230Z,87.55
2019-03-28T01:14:14.196Z,87.87
2019-03-28T01:15:14.182Z,87.45
2019-03-28T01:16:14.267Z,87.28
2019-03-28T01:17:14.160Z,87.90
2019-03-28T01:18:14.181Z,89.25
2019-03-28T01:19:14.142Z,88.73
2019-03-28T01:20:14.127Z,89.21
2019-03-28T01:21:14.119Z,89.31
2019-03-28T01:22:14.106Z,88.69
2019-03-28T01:23:14.135Z,88.79
2019-03-28T01:24:14.089Z,88.86
2019-03-28T01:25:14.073Z,88.13
2019-03-28T01:26:14.068Z,88.03
2019-03-28T01:27:14.051Z,87.72
2019-03-28T01:28:14.047Z,87.51
2019-03-28T01:29:14.050Z,87.82
2019-03-28T01:30:14.017Z,87.72
2019-03-28T01:31:14.014Z,87.41
2019-03-28T01:32:13.994Z,87.41
2019-03-28T01:33:13.986Z,86.47
2019-03-28T01:34:13.999Z,86.58
2019-03-28T01:35:13.969Z,86.58
2019-03-28T01:36:13.950Z,86.41
2019-03-28T01:37:13.940Z,86.37
2019-03-28T01:38:13.931Z,87.04
2019-03-28T01:39:13.942Z,87.66
2019-03-28T01:40:13.910Z,87.97
2019-03-28T01:41:13.897Z,87.87
2019-03-28T01:42:13.888Z,87.66
2019-03-28T01:43:13.880Z,87.87
2019-03-28T01:44:13.892Z,87.51
2019-03-28T01:45:13.857Z,87.57
2019-03-28T01:46:13.844Z,87.37
2019-03-28T01:47:13.834Z,86.44
2019-03-28T01:48:13.823Z,86.54
2019-03-28T01:49:13.844Z,86.60
2019-03-28T01:50:13.803Z,86.54
2019-03-28T01:51:13.788Z,85.99
2019-03-28T01:52:13.783Z,86.65
2019-03-28T01:53:13.765Z,86.44
2019-03-28T01:54:13.777Z,86.23
2019-03-28T01:55:13.749Z,86.65
2019-03-28T01:56:13.736Z,86.65
2019-03-28T01:57:13.726Z,86.23
2019-03-28T01:58:13.709Z,87.06
2019-03-28T01:59:13.733Z,86.96
2019-03-28T02:00:13.694Z,86.44
2019-03-28T02:01:13.683Z,86.37
2019-03-28T02:02:13.665Z,87.62
2019-03-28T02:03:13.656Z,87.30
2019-03-28T02:04:13.649Z,87.37
2019-03-28T02:05:13.660Z,87.57
2019-03-28T02:06:13.624Z,87.68
2019-03-28T02:07:13.614Z,86.75
2019-03-28T02:08:13.607Z,86.85
2019-03-28T02:09:13.593Z,86.96
2019-03-28T02:10:13.616Z,86.40
2019-03-28T02:11:13.570Z,86.60
2019-03-28T02:12:13.564Z,86.09
2019-03-28T02:13:13.573Z,86.09
2019-03-28T02:14:13.537Z,86.29
2019-03-28T02:15:13.553Z,86.60
2019-03-28T02:16:13.514Z,86.19
2019-03-28T02:17:13.502Z,86.29
2019-03-28T02:18:13.493Z,85.99
2019-03-28T02:19:13.487Z,86.09
2019-03-28T02:20:13.499Z,86.19
2019-03-28T02:21:13.461Z,85.78
2019-03-28T02:22:13.456Z,86.40
2019-03-28T02:23:13.446Z,85.88
2019-03-28T02:24:13.432Z,86.19
2019-03-28T02:25:13.443Z,85.88
2019-03-28T02:26:13.406Z,86.50
2019-03-28T02:27:23.500Z,85.99
2019-03-28T02:28:14.380Z,86.33
2019-03-28T02:29:13.373Z,86.40
2019-03-28T02:30:13.392Z,86.44
2019-03-28T02:31:13.352Z,86.40
2019-03-28T02:32:13.345Z,86.40
2019-03-28T02:33:13.332Z,86.44
2019-03-28T02:34:13.317Z,86.19
2019-03-28T02:35:13.339Z,86.44
2019-03-28T02:36:13.296Z,86.29
2019-03-28T02:37:13.304Z,85.92
2019-03-28T02:38:13.279Z,86.54
2019-03-28T02:39:13.275Z,86.54
2019-03-28T02:40:13.289Z,86.85
2019-03-28T02:41:13.256Z,86.96
2019-03-28T02:42:13.234Z,86.75
2019-03-28T02:43:13.250Z,87.20
2019-03-28T02:44:13.209Z,87.37
2019-03-28T02:45:13.197Z,87.47
2019-03-28T02:46:13.211Z,87.06
2019-03-28T02:47:13.179Z,86.75
2019-03-28T02:48:13.170Z,86.65
2019-03-28T02:49:13.154Z,86.54
2019-03-28T02:50:13.148Z,86.54
2019-03-28T02:51:13.160Z,87.30
2019-03-28T02:52:13.128Z,87.37
2019-03-28T02:53:13.838Z,87.47
2019-03-28T02:54:13.104Z,86.65
2019-03-28T02:55:13.088Z,87.68
2019-03-28T02:56:13.102Z,87.47
2019-03-28T02:57:13.065Z,87.33
2019-03-28T02:58:13.059Z,87.06
2019-03-28T02:59:13.045Z,86.81
2019-03-28T03:00:13.041Z,86.50
2019-03-28T03:01:13.045Z,86.50
2019-03-28T03:02:13.017Z,86.19
2019-03-28T03:03:13.005Z,85.68
2019-03-28T03:04:12.991Z,85.78
2019-03-28T03:05:12.979Z,86.40
2019-03-28T03:06:12.996Z,86.09
2019-03-28T03:07:12.963Z,85.99
2019-03-28T03:08:12.944Z,86.71
2019-03-28T03:09:12.931Z,86.60
2019-03-28T03:10:12.933Z,86.50
2019-03-28T03:11:12.935Z,86.40
2019-03-28T03:12:12.899Z,86.19
2019-03-28T03:13:12.893Z,86.29
2019-03-28T03:14:12.882Z,86.54
2019-03-28T03:15:12.865Z,86.71
2019-03-28T03:16:12.891Z,86.19
2019-03-28T03:17:12.859Z,86.29
2019-03-28T03:18:12.832Z,86.60
2019-03-28T03:19:12.823Z,86.50
2019-03-28T03:20:12.812Z,86.50
2019-03-28T03:21:12.805Z,86.57
2019-03-28T03:22:12.815Z,85.47
2019-03-28T03:23:12.776Z,86.05
2019-03-28T03:24:12.766Z,85.63
2019-03-28T03:25:12.779Z,85.94
2019-03-28T03:26:12.744Z,85.11
2019-03-28T03:27:12.761Z,85.11
2019-03-28T03:28:12.722Z,84.87
2019-03-28T03:29:12.713Z,84.66
2019-03-28T03:30:12.706Z,84.87
2019-03-28T03:31:12.691Z,84.39
2019-03-28T03:32:12.705Z,85.22
2019-03-28T03:33:12.668Z,84.66
2019-03-28T03:34:12.662Z,84.45
2019-03-28T03:35:12.646Z,84.81
2019-03-28T03:36:12.635Z,84.56
2019-03-28T03:37:12.647Z,84.39
2019-03-28T03:38:12.611Z,84.91
2019-03-28T03:39:13.800Z,85.11
2019-03-28T03:40:12.590Z,85.02
2019-03-28T03:41:12.580Z,85.02
2019-03-28T03:42:12.595Z,85.84
2019-03-28T03:43:12.555Z,85.99
2019-03-28T03:44:12.549Z,85.74
2019-03-28T03:45:12.536Z,86.15
2019-03-28T03:46:12.533Z,85.68
2019-03-28T03:47:12.538Z,86.15
2019-03-28T03:48:12.500Z,85.88
2019-03-28T03:49:12.492Z,86.09
2019-03-28T03:50:12.480Z,86.15
2019-03-28T03:51:12.468Z,85.36
2019-03-28T03:52:12.477Z,86.05
2019-03-28T03:53:12.448Z,85.99
2019-03-28T03:54:12.438Z,85.88
2019-03-28T03:55:12.434Z,85.78
2019-03-28T03:56:12.413Z,85.99
2019-03-28T03:57:12.425Z,86.05
2019-03-28T03:58:16.174Z,86.50
2019-03-28T03:59:12.383Z,85.94
2019-03-28T04:00:12.374Z,86.46
2019-03-28T04:01:12.354Z,85.94
2019-03-28T04:02:12.384Z,86.57
2019-03-28T04:03:12.339Z,86.01
2019-03-28T04:04:12.320Z,85.70
2019-03-28T04:05:12.731Z,85.63
2019-03-28T04:06:12.301Z,86.01
2019-03-28T04:07:12.384Z,85.08
2019-03-28T04:08:12.307Z,85.14
2019-03-28T04:09:12.271Z,84.52
2019-03-28T04:10:12.254Z,84.31
2019-03-28T04:11:12.244Z,83.70
2019-03-28T04:12:12.233Z,84.21
2019-03-28T04:13:12.249Z,83.86
2019-03-28T04:14:12.227Z,84.00
2019-03-28T04:15:12.218Z,84.31
2019-03-28T04:16:12.194Z,83.65
2019-03-28T04:17:12.175Z,83.55
2019-03-28T04:18:12.206Z,83.55
2019-03-28T04:19:12.153Z,83.65
2019-03-28T04:20:12.143Z,83.45
2019-03-28T04:21:12.130Z,83.39
2019-03-28T04:22:12.120Z,84.21
2019-03-28T04:23:12.130Z,84.94
2019-03-28T04:24:12.099Z,84.31
2019-03-28T04:25:12.084Z,84.66
2019-03-28T04:26:12.079Z,85.08
2019-03-28T04:27:12.191Z,85.60
2019-03-28T04:28:12.741Z,85.08
2019-03-28T04:29:12.043Z,84.42
2019-03-28T04:30:12.030Z,83.90
2019-03-28T04:31:12.020Z,83.94
2019-03-28T04:32:12.006Z,83.94
2019-03-28T04:33:12.090Z,84.36
2019-03-28T04:34:11.990Z,84.36
2019-03-28T04:35:11.979Z,85.35
2019-03-28T04:36:11.961Z,84.73
2019-03-28T04:37:11.955Z,84.00
2019-03-28T04:38:11.962Z,84.66
2019-03-28T04:39:11.947Z,83.84
2019-03-28T04:40:11.926Z,84.56
2019-03-28T04:41:11.911Z,85.70
2019-03-28T04:42:11.899Z,85.49
2019-03-28T04:43:11.909Z,85.70
2019-03-28T04:44:11.878Z,85.60
2019-03-28T04:45:11.866Z,85.91
2019-03-28T04:46:11.849Z,85.70
2019-03-28T04:47:11.839Z,85.86
2019-03-28T04:48:11.848Z,85.00
2019-03-28T04:49:11.818Z,84.48
2019-03-28T04:50:11.809Z,84.07
2019-03-28T04:51:12.020Z,83.55
2019-03-28T04:52:11.787Z,84.17
2019-03-28T04:53:11.897Z,84.73
2019-03-28T04:54:11.770Z,84.63
2019-03-28T04:55:11.751Z,84.52
2019-03-28T04:56:12.403Z,84.83
2019-03-28T04:57:11.730Z,85.97
2019-03-28T04:58:11.720Z,85.45
2019-03-28T04:59:11.728Z,86.07
2019-03-28T05:00:11.702Z,85.55
2019-03-28T05:01:11.686Z,85.60
2019-03-28T05:02:11.677Z,85.39
2019-03-28T05:03:11.663Z,86.21
2019-03-28T05:04:11.674Z,86.42
2019-03-28T05:05:11.641Z,86.52
2019-03-28T05:06:11.633Z,86.52
2019-03-28T05:07:11.621Z,86.18
2019-03-28T05:08:11.608Z,85.86
2019-03-28T05:09:11.620Z,86.11
2019-03-28T05:10:11.619Z,86.11
2019-03-28T05:11:11.577Z,85.49
2019-03-28T05:12:11.575Z,85.97
2019-03-28T05:13:11.554Z,86.05
2019-03-28T05:14:11.565Z,87.25
2019-03-28T05:15:11.529Z,87.25
2019-03-28T05:16:11.521Z,86.73
2019-03-28T05:17:11.510Z,86.42
2019-03-28T05:18:11.495Z,86.52
2019-03-28T05:19:11.527Z,86.21
2019-03-28T05:20:13.333Z,86.42
2019-03-28T05:21:11.467Z,87.15
2019-03-28T05:22:11.456Z,86.63
2019-03-28T05:23:11.446Z,86.63
2019-03-28T05:24:11.453Z,86.21
2019-03-28T05:25:11.425Z,86.42
2019-03-28T05:26:11.410Z,86.32
2019-03-28T05:27:11.401Z,86.28
2019-03-28T05:28:11.387Z,86.28
2019-03-28T05:29:11.396Z,86.28
2019-03-28T05:30:11.369Z,85.86
2019-03-28T05:31:11.357Z,85.62
2019-03-28T05:32:11.342Z,84.21
2019-03-28T05:33:11.331Z,84.56
2019-03-28T05:34:11.341Z,85.97
2019-03-28T05:35:11.308Z,85.91
2019-03-28T05:36:11.299Z,86.07
2019-03-28T05:37:11.286Z,86.18
2019-03-28T05:38:11.279Z,85.14
2019-03-28T05:39:11.289Z,84.94
2019-03-28T05:40:11.269Z,84.83
2019-03-28T05:41:11.238Z,85.35
2019-03-28T05:42:11.244Z,85.80
2019-03-28T05:43:11.223Z,86.42
2019-03-28T05:44:11.232Z,86.67
2019-03-28T05:45:11.198Z,87.02
2019-03-28T05:46:11.185Z,87.39
2019-03-28T05:47:11.177Z,87.49
2019-03-28T05:48:11.165Z,87.60
2019-03-28T05:49:11.304Z,87.60
2019-03-28T05:50:11.147Z,87.66
2019-03-28T05:51:11.136Z,86.94
2019-03-28T05:52:11.794Z,86.32
2019-03-28T05:53:11.108Z,86.52
2019-03-28T05:54:11.103Z,86.38
2019-03-28T05:55:11.110Z,85.76
2019-03-28T05:56:11.075Z,85.97
2019-03-28T05:57:11.064Z,84.52
2019-03-28T05:58:11.055Z,85.04
2019-03-28T05:59:11.583Z,83.97
2019-03-28T06:00:11.485Z,84.48
2019-03-28T06:01:11.027Z,84.69
2019-03-28T06:02:11.013Z,85.21
2019-03-28T06:03:10.998Z,84.44
2019-03-28T06:04:10.994Z,83.72
2019-03-28T06:05:11.012Z,83.72
2019-03-28T06:06:10.970Z,83.58
2019-03-28T06:07:10.960Z,83.48
2019-03-28T06:08:10.944Z,83.68
2019-03-28T06:09:10.933Z,83.99
2019-03-28T06:10:10.941Z,83.58
2019-03-28T06:11:10.917Z,83.13
2019-03-28T06:12:10.901Z,83.64
2019-03-28T06:13:10.888Z,81.41
2019-03-28T06:14:10.875Z,82.45
2019-03-28T06:15:10.888Z,83.68
2019-03-28T06:16:10.856Z,83.58
2019-03-28T06:17:10.848Z,83.78
2019-03-28T06:18:10.835Z,83.89
2019-03-28T06:19:10.825Z,83.37
2019-03-28T06:20:10.835Z,83.58
2019-03-28T06:21:10.799Z,83.48
2019-03-28T06:22:10.790Z,83.37
2019-03-28T06:23:10.780Z,83.17
2019-03-28T06:24:10.771Z,83.48
2019-03-28T06:25:10.783Z,83.83
2019-03-28T06:26:10.746Z,83.89
2019-03-28T06:27:10.732Z,83.48
2019-03-28T06:28:10.726Z,83.27
2019-03-28T06:29:22.849Z,83.37
2019-03-28T06:30:11.725Z,83.33
2019-03-28T06:31:10.899Z,82.65
2019-03-28T06:32:10.679Z,82.65
2019-03-28T06:33:10.667Z,82.55
2019-03-28T06:34:10.692Z,83.37
2019-03-28T06:35:10.698Z,83.48
2019-03-28T06:36:10.655Z,84.09
2019-03-28T06:37:10.624Z,83.58
2019-03-28T06:38:10.622Z,83.44
2019-03-28T06:39:10.605Z,82.06
2019-03-28T06:40:10.590Z,81.96
2019-03-28T06:41:10.609Z,81.65
2019-03-28T06:42:10.572Z,80.37
2019-03-28T06:43:11.449Z,82.12
2019-03-28T06:44:10.557Z,81.92
2019-03-28T06:45:11.454Z,80.58
2019-03-28T06:46:10.966Z,80.33
2019-03-28T06:47:11.443Z,79.93
2019-03-28T06:48:10.501Z,80.85
2019-03-28T06:49:10.504Z,79.82
2019-03-28T06:50:10.493Z,79.72
2019-03-28T06:51:10.511Z,80.65
2019-03-28T06:52:10.507Z,79.00
2019-03-28T06:53:10.443Z,80.30
2019-03-28T06:54:10.439Z,80.33
2019-03-28T06:55:10.428Z,79.37
2019-03-28T06:56:10.434Z,79.27
2019-03-28T06:57:10.414Z,79.16
2019-03-28T06:58:10.390Z,79.16
2019-03-28T06:59:10.376Z,79.37
2019-03-28T07:00:10.368Z,79.33
2019-03-28T07:01:10.403Z,78.51
2019-03-28T07:02:10.364Z,78.51
2019-03-28T07:03:10.346Z,78.30
2019-03-28T07:04:10.324Z,78.00
2019-03-28T07:05:10.311Z,78.51
2019-03-28T07:06:10.310Z,78.61
2019-03-28T07:07:10.332Z,78.47
2019-03-28T07:08:10.278Z,78.06
2019-03-28T07:09:10.277Z,77.75
2019-03-28T07:10:10.934Z,77.75
2019-03-28T07:11:10.265Z,77.24
2019-03-28T07:12:10.269Z,78.17
2019-03-28T07:13:10.443Z,77.79
2019-03-28T07:14:10.234Z,78.06
2019-03-28T07:15:10.204Z,77.45
2019-03-28T07:16:10.199Z,77.75
2019-03-28T07:17:10.225Z,77.72
2019-03-28T07:18:10.182Z,77.72
2019-03-28T07:19:10.178Z,77.41
2019-03-28T07:20:10.150Z,77.92
2019-03-28T07:21:10.152Z,77.10
2019-03-28T07:22:10.356Z,77.78
2019-03-28T07:23:10.122Z,77.06
2019-03-28T07:24:10.106Z,76.55
2019-03-28T07:25:10.108Z,76.14
2019-03-28T07:26:10.084Z,75.70
2019-03-28T07:27:10.092Z,75.18
2019-03-28T07:28:10.060Z,74.87
2019-03-28T07:29:10.104Z,75.18
2019-03-28T07:30:10.040Z,76.04
2019-03-28T07:31:10.023Z,76.45
2019-03-28T07:32:10.051Z,76.10
2019-03-28T07:33:10.009Z,76.93
2019-03-28T07:34:09.990Z,77.13
2019-03-28T07:35:09.980Z,75.25
2019-03-28T07:36:09.976Z,76.31
2019-03-28T07:37:09.985Z,75.90
2019-03-28T07:38:09.968Z,76.93
2019-03-28T07:39:09.941Z,77.06
2019-03-28T07:40:09.942Z,77.78
2019-03-28T07:41:09.919Z,78.03
2019-03-28T07:42:09.945Z,77.92
2019-03-28T07:43:09.892Z,78.40
2019-03-28T07:44:09.889Z,77.75
2019-03-28T07:45:09.879Z,77.03
2019-03-28T07:46:09.855Z,77.23
2019-03-28T07:47:09.885Z,77.20
2019-03-28T07:48:09.830Z,75.45
2019-03-28T07:49:09.825Z,75.56
2019-03-28T07:50:09.810Z,76.17
2019-03-28T07:51:09.820Z,76.89
2019-03-28T07:52:09.790Z,76.17
2019-03-28T07:53:09.797Z,75.28
2019-03-28T07:54:09.766Z,74.60
2019-03-28T07:55:09.756Z,74.66
2019-03-28T07:56:09.742Z,74.66
2019-03-28T07:57:09.740Z,74.53
2019-03-28T07:58:09.750Z,73.44
2019-03-28T07:59:09.710Z,74.66
2019-03-28T08:00:09.705Z,74.87
2019-03-28T08:01:09.690Z,74.80
2019-03-28T08:02:09.689Z,73.44
2019-03-28T08:03:09.701Z,73.44
2019-03-28T08:04:12.194Z,73.71
2019-03-28T08:05:09.641Z,72.96
2019-03-28T08:06:12.574Z,72.31
2019-03-28T08:07:09.639Z,71.90
2019-03-28T08:08:09.629Z,72.20
2019-03-28T08:09:09.604Z,71.28
2019-03-28T08:10:09.597Z,71.39
2019-03-28T08:11:09.609Z,70.67
2019-03-28T08:12:21.800Z,71.52
2019-03-28T08:13:10.579Z,72.14
2019-03-28T08:14:09.540Z,72.58
2019-03-28T08:15:09.530Z,71.76
2019-03-28T08:16:09.543Z,72.58
2019-03-28T08:17:09.506Z,72.14
2019-03-28T08:18:09.536Z,72.24
2019-03-28T08:19:09.510Z,72.44
2019-03-28T08:20:09.473Z,72.31
2019-03-28T08:21:09.466Z,71.18
2019-03-28T08:22:09.452Z,71.49
2019-03-28T08:23:09.644Z,70.84
2019-03-28T08:24:09.429Z,71.36
2019-03-28T08:25:11.682Z,71.04
2019-03-28T08:26:09.783Z,71.01
2019-03-28T08:27:09.556Z,70.81
2019-03-28T08:28:09.386Z,68.63
2019-03-28T08:29:09.398Z,69.85
2019-03-28T08:30:18.073Z,69.24
2019-03-28T08:31:10.350Z,69.14
2019-03-28T08:32:09.348Z,69.14
2019-03-28T08:33:09.328Z,68.80
2019-03-28T08:34:09.341Z,69.24
2019-03-28T08:35:10.441Z,68.80
2019-03-28T08:36:09.296Z,67.98
2019-03-28T08:37:09.281Z,68.49
2019-03-28T08:38:10.181Z,68.49
2019-03-28T08:39:09.292Z,68.16
2019-03-28T08:40:09.254Z,67.41
2019-03-28T08:41:09.243Z,66.93
2019-03-28T08:42:09.240Z,67.54
2019-03-28T08:43:09.217Z,67.85
2019-03-28T08:44:09.245Z,67.51
2019-03-28T08:45:09.200Z,65.67
2019-03-28T08:46:09.256Z,66.69
2019-03-28T08:47:09.192Z,66.66
2019-03-28T08:48:09.169Z,66.77
2019-03-28T08:49:09.195Z,65.54
2019-03-28T08:50:09.138Z,65.23
2019-03-28T08:51:09.130Z,65.13
2019-03-28T08:52:11.769Z,65.64
2019-03-28T08:53:09.125Z,65.54
2019-03-28T08:54:09.097Z,65.54
2019-03-28T08:55:10.075Z,64.90
2019-03-28T08:56:09.074Z,65.54
2019-03-28T08:57:09.063Z,65.54
2019-03-28T08:58:09.062Z,65.74
2019-03-28T08:59:09.040Z,66.25
2019-03-28T09:00:09.055Z,66.49
2019-03-28T09:01:09.021Z,65.57
2019-03-28T09:02:09.015Z,66.21
2019-03-28T09:03:09.017Z,66.14
2019-03-28T09:04:09.008Z,67.37
2019-03-28T09:05:09.001Z,67.95
2019-03-28T09:06:08.973Z,67.92
2019-03-28T09:07:08.970Z,67.41
2019-03-28T09:08:08.940Z,66.90
2019-03-28T09:09:08.935Z,65.47
2019-03-28T09:10:08.941Z,65.54
2019-03-28T09:11:08.910Z,66.69
2019-03-28T09:12:08.895Z,66.69
2019-03-28T09:13:08.885Z,65.98
2019-03-28T09:14:08.882Z,66.69
2019-03-28T09:15:08.884Z,65.77
2019-03-28T09:16:08.849Z,65.57
2019-03-28T09:17:08.845Z,66.11
2019-03-28T09:18:08.845Z,68.42
2019-03-28T09:19:08.815Z,69.31
2019-03-28T09:20:08.833Z,67.57
2019-03-28T09:21:08.798Z,67.95
2019-03-28T09:22:08.788Z,67.54
2019-03-28T09:23:08.780Z,67.98
2019-03-28T09:24:08.769Z,68.93
2019-03-28T09:25:08.770Z,69.24
2019-03-28T09:26:08.748Z,69.21
2019-03-28T09:27:08.724Z,68.29
2019-03-28T09:28:08.717Z,68.77
2019-03-28T09:29:08.708Z,68.12
2019-03-28T09:30:08.737Z,67.10
2019-03-28T09:31:19.338Z,66.46
2019-03-28T09:32:09.668Z,65.13
2019-03-28T09:33:08.669Z,66.33
2019-03-28T09:34:08.649Z,65.20
2019-03-28T09:35:08.656Z,66.53
2019-03-28T09:36:08.663Z,66.66
2019-03-28T09:37:08.617Z,67.92
2019-03-28T09:38:08.603Z,68.12
2019-03-28T09:39:08.610Z,67.27
2019-03-28T09:40:08.664Z,67.89
2019-03-28T09:41:08.601Z,66.97
2019-03-28T09:42:08.560Z,67.04
2019-03-28T09:43:08.547Z,67.18
2019-03-28T09:44:08.538Z,66.90
2019-03-28T09:45:08.527Z,68.66
2019-03-28T09:46:08.619Z,69.69
2019-03-28T09:47:08.528Z,69.85
2019-03-28T09:48:11.442Z,71.19
2019-03-28T09:49:08.487Z,71.08
2019-03-28T09:50:08.537Z,70.54
2019-03-28T09:51:08.479Z,70.43
2019-03-28T09:52:08.448Z,71.05
2019-03-28T09:53:08.447Z,70.61
2019-03-28T09:54:08.430Z,70.75
2019-03-28T09:55:08.412Z,70.54
2019-03-28T09:56:08.442Z,71.15
2019-03-28T09:57:08.398Z,71.05
2019-03-28T09:58:08.387Z,71.05
2019-03-28T09:59:08.367Z,71.77
2019-03-28T10:00:08.358Z,72.17
2019-03-28T10:01:08.349Z,72.07
2019-03-28T10:02:08.387Z,71.80
2019-03-28T10:03:08.327Z,71.73
2019-03-28T10:04:08.313Z,72.41
2019-03-28T10:05:08.301Z,72.82
2019-03-28T10:06:08.290Z,72.41
2019-03-28T10:07:08.303Z,72.52
2019-03-28T10:08:08.267Z,72.72
2019-03-28T10:09:08.260Z,72.79
2019-03-28T10:10:09.334Z,72.17
2019-03-28T10:11:08.241Z,71.12
2019-03-28T10:12:08.247Z,70.88
2019-03-28T10:13:08.209Z,69.82
2019-03-28T10:14:08.198Z,69.65
2019-03-28T10:15:08.191Z,71.09
2019-03-28T10:16:08.190Z,70.68
2019-03-28T10:17:08.186Z,70.17
2019-03-28T10:18:08.156Z,70.98
2019-03-28T10:19:08.141Z,70.47
2019-03-28T10:20:08.965Z,70.27
2019-03-28T10:21:08.121Z,69.32
2019-03-28T10:22:08.132Z,68.26
2019-03-28T10:23:08.380Z,68.60
2019-03-28T10:24:08.090Z,68.63
2019-03-28T10:25:08.076Z,68.33
2019-03-28T10:26:08.067Z,68.26
2019-03-28T10:27:08.095Z,67.96
2019-03-28T10:28:08.049Z,67.14
2019-03-28T10:29:08.035Z,67.01
2019-03-28T10:30:08.023Z,65.37
2019-03-28T10:31:16.426Z,65.75
2019-03-28T10:32:09.051Z,66.54
2019-03-28T10:33:07.990Z,66.47
2019-03-28T10:34:07.980Z,66.57
2019-03-28T10:35:07.965Z,66.06
2019-03-28T10:36:07.955Z,66.97
2019-03-28T10:37:07.981Z,65.42
2019-03-28T10:38:07.971Z,63.79
2019-03-28T10:39:07.920Z,63.96
2019-03-28T10:40:07.916Z,65.08
2019-03-28T10:41:07.903Z,64.26
2019-03-28T10:42:07.917Z,64.17
2019-03-28T10:43:07.878Z,65.69
2019-03-28T10:44:07.865Z,65.83
2019-03-28T10:45:07.856Z,66.03
2019-03-28T10:46:07.842Z,64.87
2019-03-28T10:47:07.865Z,64.67
2019-03-28T10:48:07.821Z,64.29
2019-03-28T10:49:07.810Z,64.06
2019-03-28T10:50:07.800Z,63.45
2019-03-28T10:51:07.799Z,62.92
2019-03-28T10:52:07.828Z,63.39
2019-03-28T10:53:07.794Z,61.76
2019-03-28T10:54:19.198Z,62.17
2019-03-28T10:55:08.777Z,62.58
2019-03-28T10:56:20.859Z,61.33
2019-03-28T10:57:13.792Z,61.74
2019-03-28T10:58:18.269Z,62.27
2019-03-28T10:59:22.401Z,62.07
2019-03-28T11:00:08.688Z,62.58
2019-03-28T11:01:07.709Z,61.69
2019-03-28T11:02:07.666Z,62.48
2019-03-28T11:03:07.703Z,61.60
2019-03-28T11:04:07.654Z,61.10
2019-03-28T11:05:07.658Z,61.43
2019-03-28T11:06:07.621Z,62.20
2019-03-28T11:07:07.612Z,62.02
2019-03-28T11:08:07.625Z,62.74
2019-03-28T11:09:08.482Z,62.92
2019-03-28T11:10:07.582Z,62.04
2019-03-28T11:11:07.583Z,61.40
2019-03-28T11:12:07.560Z,60.15
2019-03-28T11:13:09.546Z,59.11
2019-03-28T11:14:07.535Z,58.40
2019-03-28T11:15:07.524Z,59.31
2019-03-28T11:16:07.518Z,59.31
2019-03-28T11:17:07.520Z,58.83
2019-03-28T11:18:07.525Z,58.80
2019-03-28T11:19:07.528Z,57.59
2019-03-28T11:20:07.473Z,57.38
2019-03-28T11:21:07.468Z,58.02
2019-03-28T11:22:07.450Z,58.06
2019-03-28T11:23:07.515Z,56.99
2019-03-28T11:24:07.431Z,57.30
2019-03-28T11:25:07.448Z,55.68
2019-03-28T11:26:07.438Z,56.72
2019-03-28T11:27:07.394Z,57.15
2019-03-28T11:28:07.462Z,56.24
2019-03-28T11:29:07.850Z,57.25
2019-03-28T11:30:07.397Z,57.23
2019-03-28T11:31:07.361Z,56.52
2019-03-28T11:32:07.349Z,57.12
2019-03-28T11:33:07.379Z,56.59
2019-03-28T11:34:07.319Z,56.16
2019-03-28T11:35:07.323Z,54.97
2019-03-28T11:36:07.298Z,56.24
2019-03-28T11:37:11.329Z,56.62
2019-03-28T11:38:09.797Z,56.95
2019-03-28T11:39:07.306Z,57.15
2019-03-28T11:40:09.150Z,56.52
2019-03-28T11:41:07.260Z,56.49
2019-03-28T11:42:07.235Z,55.68
2019-03-28T11:43:07.247Z,55.91
2019-03-28T11:44:07.276Z,55.98
2019-03-28T11:45:09.245Z,55.78
2019-03-28T11:46:07.198Z,55.47
2019-03-28T11:47:07.185Z,55.22
2019-03-28T11:48:07.798Z,55.22
2019-03-28T11:49:07.160Z,53.98
2019-03-28T11:50:07.147Z,53.72
2019-03-28T11:51:07.158Z,53.52
2019-03-28T11:52:07.160Z,54.16
2019-03-28T11:53:07.141Z,55.50
2019-03-28T11:54:07.118Z,56.74
2019-03-28T11:55:07.106Z,55.78
2019-03-28T11:56:07.113Z,54.46
2019-03-28T11:57:07.077Z,55.22
2019-03-28T11:58:07.112Z,56.04
2019-03-28T11:59:07.051Z,56.31
2019-03-28T12:00:07.045Z,55.40
2019-03-28T12:01:07.028Z,55.63
2019-03-28T12:02:19.128Z,56.04
2019-03-28T12:03:08.036Z,54.82
2019-03-28T12:04:07.015Z,55.10
2019-03-28T12:05:06.986Z,55.22
2019-03-28T12:06:06.993Z,56.39
2019-03-28T12:07:06.959Z,57.00
2019-03-28T12:08:06.947Z,57.21
2019-03-28T12:09:06.959Z,57.34
2019-03-28T12:10:06.925Z,57.23
2019-03-28T12:11:06.920Z,57.51
2019-03-28T12:12:06.919Z,57.41
2019-03-28T12:13:06.903Z,57.31
2019-03-28T12:14:06.904Z,57.28
2019-03-28T12:15:06.877Z,57.18
2019-03-28T12:16:06.863Z,57.35
2019-03-28T12:17:06.860Z,57.35
2019-03-28T12:18:06.847Z,56.98
2019-03-28T12:19:06.862Z,56.87
2019-03-28T12:20:06.817Z,57.18
2019-03-28T12:21:06.811Z,57.51
2019-03-28T12:22:06.801Z,57.81
2019-03-28T12:23:06.812Z,57.92
2019-03-28T12:24:06.829Z,57.43
2019-03-28T12:25:06.777Z,58.96
2019-03-28T12:26:06.767Z,58.69
2019-03-28T12:27:06.743Z,58.38
2019-03-28T12:28:06.755Z,57.56
2019-03-28T12:29:06.773Z,58.38
2019-03-28T12:30:06.723Z,58.15
2019-03-28T12:31:06.701Z,58.58
2019-03-28T12:32:14.030Z,58.48
2019-03-28T12:33:07.707Z,58.71
2019-03-28T12:34:06.708Z,58.84
2019-03-28T12:35:06.649Z,59.68
2019-03-28T12:36:06.644Z,59.28
2019-03-28T12:37:06.646Z,59.17
2019-03-28T12:38:06.646Z,58.94
2019-03-28T12:39:06.647Z,58.23
2019-03-28T12:40:06.611Z,58.53
2019-03-28T12:41:06.597Z,59.05
2019-03-28T12:42:06.569Z,59.14
2019-03-28T12:43:06.573Z,57.72
2019-03-28T12:44:06.555Z,58.33
2019-03-28T12:45:06.559Z,58.17
2019-03-28T12:46:06.564Z,58.15
2019-03-28T12:47:06.515Z,56.90
2019-03-28T12:48:06.505Z,55.78
2019-03-28T12:49:06.507Z,55.78
2019-03-28T12:50:06.506Z,54.36
2019-03-28T12:51:06.470Z,55.40
2019-03-28T12:52:06.485Z,56.01